Time;durP1;ratioP1;P1;durP2;ratioP2;P2;SDS_P1;SDS_P2;PMS_P1;PMS_P2;Temp;Humidity;BMP_temperature;BMP_pressure;BME280_temperature;BME280_humidity;BME280_pressure;Samples;Min_cycle;Max_cycle;Signal;HPM_P1;HPM_P2
2023/12/28 00:01:43;;;;;;;;;;;5.60;99.90;;;;;;2626029;47;19946;-77
2023/12/28 00:04:13;;;;;;;;;;;5.60;99.90;;;;;;2623909;47;19953;-78
2023/12/28 00:06:44;;;;;;;;;;;5.60;99.90;;;;;;2622257;54;19953;-79
2023/12/28 00:09:17;;;;;;;;;;;5.60;99.90;;;;;;2621598;47;19994;-78
2023/12/28 00:11:47;;;;;;;;;;;5.60;99.90;;;;;;2622252;54;20676;-77
2023/12/28 00:14:17;;;;;;;;;;;5.70;99.90;;;;;;2618962;54;19946;-77
2023/12/28 00:16:47;;;;;;;;;;;5.70;99.90;;;;;;2619039;54;19946;-77
2023/12/28 00:19:17;;;;;;;;;;;5.70;99.90;;;;;;2621683;54;19946;-77
2023/12/28 00:21:48;;;;;;;;;;;5.70;99.90;;;;;;2619306;54;19993;-77
2023/12/28 00:24:22;;;;;;;;;;;5.70;99.90;;;;;;2620362;47;19969;-79
2023/12/28 00:26:52;;;;;;;;;;;5.70;99.90;;;;;;2621902;47;19938;-78
2023/12/28 00:29:22;;;;;;;;;;;5.70;99.90;;;;;;2620772;47;19946;-76
2023/12/28 00:31:52;;;;;;;;;;;5.70;99.90;;;;;;2619910;54;19985;-77
2023/12/28 00:34:21;;;;;;;;;;;5.80;99.90;;;;;;2620130;47;20441;-78
2023/12/28 00:36:52;;;;;;;;;;;5.90;99.90;;;;;;2622583;39;20572;-78
2023/12/28 00:39:24;;;;;;;;;;;5.80;99.90;;;;;;2624725;39;20402;-78
2023/12/28 00:41:54;;;;;;;;;;;5.80;99.90;;;;;;2627868;47;20057;-77
2023/12/28 00:44:24;;;;;;;;;;;5.80;99.90;;;;;;2623265;54;19946;-78
2023/12/28 00:46:54;;;;;;;;;;;6.00;99.90;;;;;;2621079;47;19947;-77
2023/12/28 00:49:24;;;;;;;;;;;5.90;99.90;;;;;;2621446;54;19998;-77
2023/12/28 00:51:54;;;;;;;;;;;5.90;99.90;;;;;;2620958;54;19989;-78
2023/12/28 00:54:26;;;;;;;;;;;5.90;99.90;;;;;;2618686;54;19939;-77
2023/12/28 00:56:56;;;;;;;;;;;6.80;99.90;;;;;;2620818;47;19973;-78
2023/12/28 00:59:26;;;;;;;;;;;6.00;99.90;;;;;;2621517;47;19946;-77
2023/12/28 01:01:55;;;;;;;;;;;6.60;99.90;;;;;;2619730;46;19989;-77
2023/12/28 01:04:25;;;;;;;;;;;6.00;99.90;;;;;;2620063;47;19998;-77
2023/12/28 01:06:55;;;;;;;;;;;5.30;99.90;;;;;;2620598;47;20443;-75
2023/12/28 01:09:28;;;;;;;;;;;6.00;99.90;;;;;;2625176;47;19953;-76
2023/12/28 01:11:58;;;;;;;;;;;6.00;99.90;;;;;;2619901;47;19953;-77
2023/12/28 01:14:28;;;;;;;;;;;6.00;99.90;;;;;;2620183;54;19985;-77
2023/12/28 01:16:57;;;;;;;;;;;6.10;99.90;;;;;;2623925;54;19950;-77
2023/12/28 01:19:27;;;;;;;;;;;6.10;99.90;;;;;;2618730;46;19953;-77
2023/12/28 01:21:57;;;;;;;;;;;6.10;99.90;;;;;;2619117;47;19947;-77
2023/12/28 01:24:30;;;;;;;;;;;6.10;99.90;;;;;;2618877;54;20409;-77
2023/12/28 01:27:00;;;;;;;;;;;7.40;99.90;;;;;;2619041;47;19977;-77
2023/12/28 01:29:29;;;;;;;;;;;6.10;99.90;;;;;;2619844;39;20336;-78
2023/12/28 01:32:02;;;;;;;;;;;6.20;99.90;;;;;;2618806;54;19953;-76
2023/12/28 01:34:32;;;;;;;;;;;6.20;99.90;;;;;;2619514;47;20000;-78
2023/12/28 01:37:02;;;;;;;;;;;7.00;99.90;;;;;;2618778;47;19954;-77
2023/12/28 01:39:34;;;;;;;;;;;6.70;99.90;;;;;;2618604;54;19947;-77
2023/12/28 01:42:05;;;;;;;;;;;6.30;99.90;;;;;;2618980;54;19950;-77
2023/12/28 01:44:34;;;;;;;;;;;6.30;99.90;;;;;;2619418;47;19988;-77
2023/12/28 01:47:05;;;;;;;;;;;6.30;99.90;;;;;;2619356;47;19953;-77
2023/12/28 01:49:35;;;;;;;;;;;6.20;99.90;;;;;;2619146;54;19954;-77
2023/12/28 01:52:06;;;;;;;;;;;6.20;99.90;;;;;;2618814;47;19939;-77
2023/12/28 01:54:39;;;;;;;;;;;6.30;99.90;;;;;;2626375;46;19946;-77
2023/12/28 01:57:09;;;;;;;;;;;6.30;99.90;;;;;;2627439;47;19946;-77
2023/12/28 01:59:39;;;;;;;;;;;6.40;99.90;;;;;;2622678;47;19947;-77
2023/12/28 02:02:09;;;;;;;;;;;6.40;99.90;;;;;;2619891;47;19946;-77
2023/12/28 02:04:39;;;;;;;;;;;6.50;99.90;;;;;;2620191;47;19946;-78
2023/12/28 02:07:09;;;;;;;;;;;6.50;99.90;;;;;;2620081;47;20477;-77
2023/12/28 02:09:42;;;;;;;;;;;6.60;99.90;;;;;;2620634;50;19996;-78
2023/12/28 02:12:12;;;;;;;;;;;6.60;99.90;;;;;;2619839;47;19947;-77
2023/12/28 02:14:42;;;;;;;;;;;6.70;99.90;;;;;;2621341;39;20682;-80
2023/12/28 02:17:15;;;;;;;;;;;6.70;99.90;;;;;;2620140;39;20005;-77
2023/12/28 02:19:48;;;;;;;;;;;6.80;99.90;;;;;;2619070;54;19960;-78
2023/12/28 02:22:18;;;;;;;;;;;7.50;99.90;;;;;;2620372;47;19938;-78
2023/12/28 02:25:06;;;;;;;;;;;6.90;99.90;;;;;;2622585;54;19950;-78
2023/12/28 02:27:39;;;;;;;;;;;6.90;99.90;;;;;;2619556;46;19938;-78
2023/12/28 02:30:10;;;;;;;;;;;6.90;99.90;;;;;;2619472;54;19961;-78
2023/12/28 02:32:56;;;;;;;;;;;7.00;99.90;;;;;;2617793;47;19942;-78
2023/12/28 02:35:26;;;;;;;;;;;7.00;99.90;;;;;;2619195;54;19947;-77
2023/12/28 02:37:58;;;;;;;;;;;7.10;99.90;;;;;;2624371;54;19943;-76
2023/12/28 02:40:28;;;;;;;;;;;7.10;99.90;;;;;;2628355;54;19945;-77
2023/12/28 02:43:01;;;;;;;;;;;7.10;99.90;;;;;;2624235;47;19973;-77
2023/12/28 02:45:31;;;;;;;;;;;7.10;99.90;;;;;;2625509;47;19942;-77
2023/12/28 02:48:01;;;;;;;;;;;7.20;99.90;;;;;;2624230;46;20001;-77
2023/12/28 02:50:31;;;;;;;;;;;7.20;99.90;;;;;;2619085;47;19938;-77
2023/12/28 02:53:02;;;;;;;;;;;7.20;99.90;;;;;;2617345;54;19946;-76
2023/12/28 02:55:31;;;;;;;;;;;7.20;99.90;;;;;;2618504;47;20026;-77
2023/12/28 02:58:04;;;;;;;;;;;7.30;99.90;;;;;;2618156;47;19993;-77
2023/12/28 03:00:34;;;;;;;;;;;7.30;99.90;;;;;;2618980;47;19943;-77
2023/12/28 03:03:04;;;;;;;;;;;7.30;99.90;;;;;;2617640;47;20030;-77
2023/12/28 03:05:34;;;;;;;;;;;7.30;99.90;;;;;;2618369;47;19951;-78
2023/12/28 03:08:03;;;;;;;;;;;7.30;99.90;;;;;;2618351;47;19946;-79
2023/12/28 03:10:33;;;;;;;;;;;7.40;99.90;;;;;;2618472;47;19950;-78
2023/12/28 03:13:06;;;;;;;;;;;7.40;99.90;;;;;;2618381;47;19945;-78
2023/12/28 03:15:36;;;;;;;;;;;7.40;99.90;;;;;;2618400;47;19951;-78
2023/12/28 03:18:06;;;;;;;;;;;7.40;99.90;;;;;;2618125;47;19951;-79
2023/12/28 03:20:36;;;;;;;;;;;7.50;99.90;;;;;;2618489;54;19957;-78
2023/12/28 03:23:06;;;;;;;;;;;7.50;99.90;;;;;;2618243;54;19945;-78
2023/12/28 03:25:35;;;;;;;;;;;7.50;99.90;;;;;;2619967;54;20410;-78
2023/12/28 03:28:08;;;;;;;;;;;7.60;99.90;;;;;;2622417;47;19953;-79
2023/12/28 03:30:38;;;;;;;;;;;7.60;99.90;;;;;;2625084;54;20425;-78
2023/12/28 03:33:08;;;;;;;;;;;7.60;99.90;;;;;;2620201;47;19945;-78
2023/12/28 03:35:38;;;;;;;;;;;7.60;99.90;;;;;;2618632;47;19939;-78
2023/12/28 03:38:08;;;;;;;;;;;7.60;99.90;;;;;;2626789;47;19946;-77
2023/12/28 03:40:38;;;;;;;;;;;7.60;99.90;;;;;;2618712;47;20054;-77
2023/12/28 03:43:11;;;;;;;;;;;9.10;99.90;;;;;;2618324;54;19950;-77
2023/12/28 03:45:40;;;;;;;;;;;7.70;99.90;;;;;;2617890;47;20627;-77
2023/12/28 03:48:10;;;;;;;;;;;7.80;99.90;;;;;;2617419;47;20541;-79
2023/12/28 03:50:41;;;;;;;;;;;7.70;99.90;;;;;;2622435;39;20350;-78
2023/12/28 03:53:10;;;;;;;;;;;7.80;99.90;;;;;;2619916;54;19957;-78
2023/12/28 03:55:41;;;;;;;;;;;7.80;99.90;;;;;;2626065;47;20006;-79
2023/12/28 03:58:13;;;;;;;;;;;7.80;99.90;;;;;;2618757;47;19966;-77
2023/12/28 04:00:43;;;;;;;;;;;7.80;99.90;;;;;;2620541;47;20062;-77
2023/12/28 04:03:13;;;;;;;;;;;7.80;99.90;;;;;;2619670;48;19954;-77
2023/12/28 04:05:43;;;;;;;;;;;7.90;99.90;;;;;;2618768;54;20012;-78
2023/12/28 04:08:13;;;;;;;;;;;8.60;99.90;;;;;;2618590;54;19945;-78
2023/12/28 04:10:43;;;;;;;;;;;8.00;99.90;;;;;;2618731;47;19939;-77
2023/12/28 04:13:15;;;;;;;;;;;8.00;99.90;;;;;;2618123;54;19947;-79
2023/12/28 04:15:45;;;;;;;;;;;8.00;99.90;;;;;;2619195;39;20341;-79
2023/12/28 04:18:15;;;;;;;;;;;8.10;99.90;;;;;;2618791;54;20412;-79
2023/12/28 04:20:45;;;;;;;;;;;8.10;99.90;;;;;;2618800;54;19939;-78
2023/12/28 04:23:16;;;;;;;;;;;8.70;99.90;;;;;;2620120;47;20448;-77
2023/12/28 04:25:45;;;;;;;;;;;8.20;99.90;;;;;;2623333;47;20423;-77
2023/12/28 04:28:18;;;;;;;;;;;8.20;99.90;;;;;;2619231;54;19950;-78
2023/12/28 04:30:48;;;;;;;;;;;8.20;99.90;;;;;;2620749;31;20381;-78
2023/12/28 04:33:19;;;;;;;;;;;8.30;99.90;;;;;;2619899;47;19947;-78
2023/12/28 04:35:46;;;;;;;;;;;8.30;99.90;;;;;;2625891;54;19957;-76
2023/12/28 04:38:16;;;;;;;;;;;8.30;99.90;;;;;;2620853;47;19950;-77
2023/12/28 04:40:46;;;;;;;;;;;8.30;99.90;;;;;;2618861;47;19966;-77
2023/12/28 04:43:19;;;;;;;;;;;8.20;99.90;;;;;;2622593;54;19965;-76
2023/12/28 04:45:48;;;;;;;;;;;8.30;99.90;;;;;;2620442;47;19947;-79
2023/12/28 04:48:20;;;;;;;;;;;8.30;99.90;;;;;;2624431;47;19952;-79
2023/12/28 04:50:50;;;;;;;;;;;8.30;99.90;;;;;;2618495;54;19954;-78
2023/12/28 04:53:21;;;;;;;;;;;8.30;99.90;;;;;;2617994;47;19980;-78
2023/12/28 04:55:51;;;;;;;;;;;8.40;99.90;;;;;;2618555;47;19950;-79
2023/12/28 04:58:23;;;;;;;;;;;8.40;99.90;;;;;;2618956;47;19951;-78
2023/12/28 05:00:53;;;;;;;;;;;8.40;99.90;;;;;;2619416;54;19958;-78
2023/12/28 05:03:23;;;;;;;;;;;8.40;99.90;;;;;;2620143;47;20006;-77
2023/12/28 05:05:53;;;;;;;;;;;8.50;99.90;;;;;;2619912;54;19947;-78
2023/12/28 05:08:22;;;;;;;;;;;8.50;99.90;;;;;;2619928;54;20030;-78
2023/12/28 05:10:52;;;;;;;;;;;8.50;99.90;;;;;;2619139;47;19953;-77
2023/12/28 05:13:25;;;;;;;;;;;8.50;99.90;;;;;;2620513;39;20340;-79
2023/12/28 05:15:55;;;;;;;;;;;8.50;99.90;;;;;;2621208;47;19946;-79
2023/12/28 05:18:26;;;;;;;;;;;9.30;99.90;;;;;;2625190;47;19998;-79
2023/12/28 05:20:56;;;;;;;;;;;8.50;99.90;;;;;;2627023;54;19950;-79
2023/12/28 05:23:26;;;;;;;;;;;8.60;99.90;;;;;;2626143;47;19939;-78
2023/12/28 05:25:56;;;;;;;;;;;8.50;99.90;;;;;;2620509;47;20054;-78
2023/12/28 05:28:28;;;;;;;;;;;8.60;99.90;;;;;;2619788;47;19939;-78
2023/12/28 05:30:58;;;;;;;;;;;8.60;99.90;;;;;;2620094;39;20352;-78
2023/12/28 05:33:28;;;;;;;;;;;8.60;99.90;;;;;;2620112;39;20317;-78
2023/12/28 05:35:58;;;;;;;;;;;8.70;99.90;;;;;;2620644;39;20016;-78
2023/12/28 05:38:28;;;;;;;;;;;8.60;99.90;;;;;;2620173;47;19986;-78
2023/12/28 05:40:58;;;;;;;;;;;8.60;99.90;;;;;;2625408;54;19954;-79
2023/12/28 05:43:30;;;;;;;;;;;8.60;99.90;;;;;;2626747;47;19970;-79
2023/12/28 05:46:00;;;;;;;;;;;8.50;99.90;;;;;;2619502;54;19951;-78
2023/12/28 05:48:30;;;;;;;;;;;8.50;99.90;;;;;;2619198;54;19958;-78
2023/12/28 05:50:59;;;;;;;;;;;8.50;99.90;;;;;;2620202;46;19953;-78
2023/12/28 05:53:29;;;;;;;;;;;8.50;99.90;;;;;;2627633;54;19934;-78
2023/12/28 05:56:03;;;;;;;;;;;8.50;99.90;;;;;;2619905;47;19968;-78
2023/12/28 05:58:36;;;;;;;;;;;8.50;99.90;;;;;;2618904;54;19957;-79
2023/12/28 06:01:06;;;;;;;;;;;8.50;99.90;;;;;;2621420;46;19938;-79
2023/12/28 06:03:36;;;;;;;;;;;8.50;99.90;;;;;;2624386;54;19946;-79
2023/12/28 06:06:06;;;;;;;;;;;8.60;99.90;;;;;;2620495;47;19938;-79
2023/12/28 06:08:36;;;;;;;;;;;8.60;99.90;;;;;;2620357;47;19946;-78
2023/12/28 06:11:06;;;;;;;;;;;8.50;99.90;;;;;;2619218;47;19946;-78
2023/12/28 06:13:38;;;;;;;;;;;8.60;99.90;;;;;;2620715;54;20471;-78
2023/12/28 06:16:08;;;;;;;;;;;8.60;99.90;;;;;;2621963;39;20359;-77
2023/12/28 06:18:38;;;;;;;;;;;8.50;99.90;;;;;;2619543;47;19946;-77
2023/12/28 06:21:10;;;;;;;;;;;8.60;99.90;;;;;;2619664;47;20444;-77
2023/12/28 06:23:40;;;;;;;;;;;8.60;99.90;;;;;;2619747;47;19945;-77
2023/12/28 06:26:10;;;;;;;;;;;8.60;99.90;;;;;;2619152;54;19984;-78
2023/12/28 06:28:42;;;;;;;;;;;8.60;99.90;;;;;;2620019;31;20405;-78
2023/12/28 06:31:12;;;;;;;;;;;8.60;99.90;;;;;;2620194;47;20010;-76
2023/12/28 06:33:42;;;;;;;;;;;8.50;99.90;;;;;;2619629;54;20437;-77
2023/12/28 06:36:12;;;;;;;;;;;8.50;99.90;;;;;;2619577;47;19953;-78
2023/12/28 06:38:42;;;;;;;;;;;8.50;99.90;;;;;;2618781;54;19973;-71
2023/12/28 06:41:15;;;;;;;;;;;8.40;99.90;;;;;;2616218;47;19946;-70
2023/12/28 06:43:47;;;;;;;;;;;8.50;99.90;;;;;;2616970;54;19945;-71
2023/12/28 06:46:17;;;;;;;;;;;8.50;99.90;;;;;;2616493;54;19938;-73
2023/12/28 06:48:47;;;;;;;;;;;8.50;99.90;;;;;;2617081;54;19953;-71
2023/12/28 06:51:21;;;;;;;;;;;8.40;99.90;;;;;;2617066;54;19962;-71
2023/12/28 06:53:52;;;;;;;;;;;8.40;99.90;;;;;;2617091;54;19939;-72
2023/12/28 06:56:22;;;;;;;;;;;8.40;99.90;;;;;;2618067;54;19943;-72
2023/12/28 06:58:54;;;;;;;;;;;8.50;99.90;;;;;;2619438;47;19938;-72
2023/12/28 07:01:24;;;;;;;;;;;8.40;99.90;;;;;;2618907;47;20013;-73
2023/12/28 07:03:54;;;;;;;;;;;8.40;99.90;;;;;;2620809;54;19947;-72
2023/12/28 07:06:23;;;;;;;;;;;8.40;99.90;;;;;;2622089;47;19956;-72
2023/12/28 07:08:53;;;;;;;;;;;8.40;99.90;;;;;;2617310;54;19996;-72
2023/12/28 07:11:23;;;;;;;;;;;8.40;99.90;;;;;;2616546;47;19964;-71
2023/12/28 07:13:55;;;;;;;;;;;8.30;99.90;;;;;;2617191;54;19939;-72
2023/12/28 07:16:26;;;;;;;;;;;8.40;99.90;;;;;;2616667;47;19952;-73
2023/12/28 07:18:56;;;;;;;;;;;8.30;99.90;;;;;;2617700;47;19953;-70
2023/12/28 07:21:26;;;;;;;;;;;8.30;99.90;;;;;;2616476;47;20034;-71
2023/12/28 07:23:56;;;;;;;;;;;8.30;99.90;;;;;;2615126;54;20049;-71
2023/12/28 07:29:12;;;;;;;;;;;8.30;99.90;;;;;;2632407;54;19991;-94
2023/12/28 07:31:42;;;;;;;;;;;8.30;99.90;;;;;;2619153;54;19984;-73
2023/12/28 07:34:12;;;;;;;;;;;8.30;99.90;;;;;;2617166;39;20446;-72
2023/12/28 07:36:43;;;;;;;;;;;8.30;99.90;;;;;;2616714;47;19958;-72
2023/12/28 07:39:14;;;;;;;;;;;8.30;99.90;;;;;;2616306;54;19958;-71
2023/12/28 07:41:44;;;;;;;;;;;8.30;99.90;;;;;;2617759;54;19950;-73
2023/12/28 07:44:16;;;;;;;;;;;8.30;99.90;;;;;;2616652;54;19950;-73
2023/12/28 07:46:46;;;;;;;;;;;8.40;99.90;;;;;;2616421;47;19954;-74
2023/12/28 07:49:16;;;;;;;;;;;8.40;99.90;;;;;;2615981;47;19947;-73
2023/12/28 07:51:45;;;;;;;;;;;8.40;99.90;;;;;;2616832;54;19939;-72
2023/12/28 07:54:15;;;;;;;;;;;8.40;99.90;;;;;;2616081;47;20688;-72
2023/12/28 07:56:45;;;;;;;;;;;8.40;99.90;;;;;;2616667;51;20552;-72
2023/12/28 07:59:17;;;;;;;;;;;8.50;99.90;;;;;;2616027;54;20460;-74
2023/12/28 08:01:47;;;;;;;;;;;8.50;99.90;;;;;;2616458;54;19946;-75
2023/12/28 08:04:17;;;;;;;;;;;8.50;99.90;;;;;;2617532;47;19981;-73
2023/12/28 08:06:46;;;;;;;;;;;8.50;99.90;;;;;;2617594;54;19946;-73
2023/12/28 08:09:16;;;;;;;;;;;8.50;99.90;;;;;;2616516;52;20054;-73
2023/12/28 08:11:46;;;;;;;;;;;8.50;99.90;;;;;;2617353;47;19947;-73
2023/12/28 08:14:19;;;;;;;;;;;8.50;99.90;;;;;;2616538;47;19996;-73
2023/12/28 08:16:48;;;;;;;;;;;8.50;99.90;;;;;;2618573;54;20038;-73
2023/12/28 08:19:18;;;;;;;;;;;8.50;99.90;;;;;;2617843;54;19950;-74
2023/12/28 08:21:47;;;;;;;;;;;8.50;99.90;;;;;;2617772;54;19939;-73
2023/12/28 08:24:17;;;;;;;;;;;8.50;99.90;;;;;;2618540;47;19946;-73
2023/12/28 08:26:47;;;;;;;;;;;8.60;99.90;;;;;;2622922;47;19946;-74
2023/12/28 08:29:19;;;;;;;;;;;8.60;99.90;;;;;;2623407;47;19962;-75
2023/12/28 08:31:49;;;;;;;;;;;8.60;99.90;;;;;;2623235;47;19947;-73
2023/12/28 08:34:19;;;;;;;;;;;8.60;99.90;;;;;;2619356;54;19958;-72
2023/12/28 08:36:48;;;;;;;;;;;8.70;99.90;;;;;;2617986;47;19946;-73
2023/12/28 08:39:18;;;;;;;;;;;8.70;99.90;;;;;;2618634;54;19950;-74
2023/12/28 08:41:47;;;;;;;;;;;8.70;99.90;;;;;;2618903;47;19977;-74
2023/12/28 08:44:20;;;;;;;;;;;8.70;99.90;;;;;;2618828;46;19957;-73
2023/12/28 08:46:49;;;;;;;;;;;8.70;99.90;;;;;;2620028;54;19945;-74
2023/12/28 08:49:19;;;;;;;;;;;8.70;99.90;;;;;;2621431;54;19939;-73
2023/12/28 08:51:49;;;;;;;;;;;8.80;99.90;;;;;;2620826;39;20341;-73
2023/12/28 08:54:18;;;;;;;;;;;8.80;99.90;;;;;;2617551;47;19957;-74
2023/12/28 08:56:48;;;;;;;;;;;8.80;99.90;;;;;;2619516;54;19992;-75
2023/12/28 08:59:24;;;;;;;;;;;8.80;99.90;;;;;;2619522;47;19939;-77
2023/12/28 09:01:55;;;;;;;;;;;8.90;99.90;;;;;;2617572;47;19939;-73
2023/12/28 09:04:25;;;;;;;;;;;8.90;99.90;;;;;;2617127;47;19977;-73
2023/12/28 09:06:55;;;;;;;;;;;8.90;99.90;;;;;;2619469;46;19951;-75
2023/12/28 09:09:25;;;;;;;;;;;8.90;99.90;;;;;;2623501;54;19961;-74
2023/12/28 09:11:54;;;;;;;;;;;9.00;99.90;;;;;;2623525;31;20447;-76
2023/12/28 09:14:26;;;;;;;;;;;9.00;99.90;;;;;;2618611;47;20037;-74
2023/12/28 09:16:57;;;;;;;;;;;9.00;99.90;;;;;;2620663;47;20073;-73
2023/12/28 09:19:26;;;;;;;;;;;9.10;99.90;;;;;;2619681;46;19947;-74
2023/12/28 09:21:56;;;;;;;;;;;9.10;99.90;;;;;;2619264;47;19958;-73
2023/12/28 09:24:26;;;;;;;;;;;9.10;99.90;;;;;;2618157;47;20670;-73
2023/12/28 09:26:56;;;;;;;;;;;9.10;99.90;;;;;;2619612;47;20077;-74
2023/12/28 09:29:28;;;;;;;;;;;9.10;99.90;;;;;;2619307;54;19946;-76
2023/12/28 09:31:57;;;;;;;;;;;9.10;99.90;;;;;;2620661;54;19946;-73
2023/12/28 09:34:27;;;;;;;;;;;9.10;99.90;;;;;;2619574;47;19946;-74
2023/12/28 09:36:57;;;;;;;;;;;9.10;99.90;;;;;;2619614;47;20009;-72
2023/12/28 09:39:26;;;;;;;;;;;9.20;99.90;;;;;;2619346;47;19945;-73
2023/12/28 09:41:58;;;;;;;;;;;9.20;99.90;;;;;;2619127;54;19958;-73
2023/12/28 09:44:30;;;;;;;;;;;9.20;99.90;;;;;;2621832;54;20479;-74
2023/12/28 09:47:00;;;;;;;;;;;9.20;99.90;;;;;;2622718;54;19958;-73
2023/12/28 09:49:30;;;;;;;;;;;9.30;99.90;;;;;;2617868;47;19946;-72
2023/12/28 09:52:00;;;;;;;;;;;9.30;99.90;;;;;;2618760;47;19957;-70
2023/12/28 09:54:30;;;;;;;;;;;9.30;99.90;;;;;;2617897;54;20082;-73
2023/12/28 09:56:57;;;;;;;;;;;9.30;99.90;;;;;;2618653;54;19939;-73
2023/12/28 09:59:30;;;;;;;;;;;9.30;99.90;;;;;;2618530;54;19954;-74
2023/12/28 10:02:00;;;;;;;;;;;9.30;99.90;;;;;;2617443;54;19954;-74
2023/12/28 10:04:31;;;;;;;;;;;9.60;99.90;;;;;;2617677;54;19939;-72
2023/12/28 10:07:01;;;;;;;;;;;9.30;99.90;;;;;;2621269;54;19947;-72
2023/12/28 10:09:30;;;;;;;;;;;9.30;99.90;;;;;;2622016;51;20033;-75
2023/12/28 10:12:00;;;;;;;;;;;9.40;99.90;;;;;;2622523;47;19947;-72
2023/12/28 10:14:34;;;;;;;;;;;9.40;99.90;;;;;;2618603;47;20480;-73
2023/12/28 10:17:03;;;;;;;;;;;9.40;99.90;;;;;;2618911;46;19939;-75
2023/12/28 10:19:33;;;;;;;;;;;9.50;99.90;;;;;;2615908;54;19943;-74
2023/12/28 10:22:03;;;;;;;;;;;9.50;99.90;;;;;;2618019;54;19938;-74
2023/12/28 10:24:33;;;;;;;;;;;9.60;99.90;;;;;;2616799;54;19946;-74
2023/12/28 10:27:02;;;;;;;;;;;9.60;99.90;;;;;;2617957;54;20763;-74
2023/12/28 10:29:35;;;;;;;;;;;9.70;99.90;;;;;;2617192;54;19939;-74
2023/12/28 10:32:05;;;;;;;;;;;9.70;99.90;;;;;;2619413;47;19993;-75
2023/12/28 10:34:35;;;;;;;;;;;9.80;99.90;;;;;;2618803;47;19953;-75
2023/12/28 10:37:07;;;;;;;;;;;9.90;99.90;;;;;;2618917;54;19946;-72
2023/12/28 10:39:37;;;;;;;;;;;9.90;99.90;;;;;;2616166;54;19946;-74
2023/12/28 10:42:10;;;;;;;;;;;10.50;99.90;;;;;;2618258;47;20030;-74
2023/12/28 10:44:43;;;;;;;;;;;10.10;99.90;;;;;;2617454;54;19950;-75
2023/12/28 10:47:17;;;;;;;;;;;10.10;99.90;;;;;;2618329;47;19946;-75
2023/12/28 10:49:48;;;;;;;;;;;10.20;99.90;;;;;;2616510;47;20045;-75
2023/12/28 10:52:18;;;;;;;;;;;10.30;99.90;;;;;;2618649;39;20345;-76
2023/12/28 10:54:50;;;;;;;;;;;10.40;99.90;;;;;;2616958;54;19946;-75
2023/12/28 10:57:27;;;;;;;;;;;10.60;99.90;;;;;;2617477;47;19954;-74
2023/12/28 11:00:03;;;;;;;;;;;10.70;99.90;;;;;;2615896;54;19950;-73
2023/12/28 11:02:41;;;;;;;;;;;10.80;99.90;;;;;;2616417;47;19947;-74
2023/12/28 11:05:11;;;;;;;;;;;10.90;99.90;;;;;;2613595;51;19977;-75
2023/12/28 11:07:42;;;;;;;;;;;11.10;99.90;;;;;;2616829;54;19946;-74
2023/12/28 11:10:12;;;;;;;;;;;11.20;99.90;;;;;;2617137;54;20074;-75
2023/12/28 11:12:42;;;;;;;;;;;11.30;99.90;;;;;;2617955;47;19947;-74
2023/12/28 11:15:15;;;;;;;;;;;11.40;99.90;;;;;;2618969;39;20770;-74
2023/12/28 11:17:45;;;;;;;;;;;11.50;99.90;;;;;;2617614;47;19977;-72
2023/12/28 11:20:16;;;;;;;;;;;11.60;99.90;;;;;;2617300;54;19946;-72
2023/12/28 11:22:46;;;;;;;;;;;11.70;99.90;;;;;;2621054;54;19950;-72
2023/12/28 11:25:19;;;;;;;;;;;11.70;99.90;;;;;;2618565;47;19939;-72
2023/12/28 11:27:50;;;;;;;;;;;11.80;99.90;;;;;;2616865;54;20441;-71
2023/12/28 11:30:22;;;;;;;;;;;11.90;99.90;;;;;;2617479;54;19947;-71
2023/12/28 11:32:53;;;;;;;;;;;11.90;99.90;;;;;;2617934;47;19969;-71
2023/12/28 11:35:23;;;;;;;;;;;11.90;99.90;;;;;;2616539;47;19950;-72
2023/12/28 11:37:54;;;;;;;;;;;11.90;99.90;;;;;;2617801;47;19953;-70
2023/12/28 19:31:56;;;;;;;;;;;11.90;99.90;;;;;;2607700;46;20555;-74
2023/12/28 19:34:26;;;;;;;;;;;9.40;99.90;;;;;;2607820;47;20534;-74
2023/12/28 19:36:56;;;;;;;;;;;9.30;99.90;;;;;;2607150;46;19962;-74
2023/12/28 19:39:26;;;;;;;;;;;9.40;99.90;;;;;;2605758;39;20496;-72
2023/12/28 19:41:56;;;;;;;;;;;9.40;99.90;;;;;;2606318;48;20484;-74
2023/12/28 19:44:25;;;;;;;;;;;9.40;99.90;;;;;;2606179;39;20321;-76
2023/12/28 19:46:58;;;;;;;;;;;9.30;99.90;;;;;;2607930;54;19946;-75
2023/12/28 19:49:28;;;;;;;;;;;9.40;99.90;;;;;;2612755;54;20508;-75
2023/12/28 19:51:57;;;;;;;;;;;8.10;99.90;;;;;;2606993;47;19973;-75
2023/12/28 19:54:27;;;;;;;;;;;9.40;99.90;;;;;;2605819;47;19954;-74
2023/12/28 19:56:57;;;;;;;;;;;9.40;99.90;;;;;;2607092;39;20459;-74
2023/12/28 19:59:27;;;;;;;;;;;9.50;99.90;;;;;;2607150;46;20099;-73
2023/12/28 20:01:59;;;;;;;;;;;9.50;99.90;;;;;;2606003;47;19954;-73
2023/12/28 20:04:29;;;;;;;;;;;9.50;99.90;;;;;;2605776;54;20084;-74
2023/12/28 20:07:01;;;;;;;;;;;9.50;99.90;;;;;;2605285;54;19947;-75
2023/12/28 20:09:31;;;;;;;;;;;9.50;99.90;;;;;;2607512;54;19950;-75
2023/12/28 20:12:01;;;;;;;;;;;9.50;99.90;;;;;;2607055;47;19953;-75
2023/12/28 20:14:30;;;;;;;;;;;9.60;99.90;;;;;;2606348;47;19951;-75
2023/12/28 20:17:03;;;;;;;;;;;9.60;99.90;;;;;;2605969;54;19938;-74
2023/12/28 20:19:34;;;;;;;;;;;9.60;99.90;;;;;;2606696;47;19947;-75
2023/12/28 20:22:04;;;;;;;;;;;9.70;99.90;;;;;;2608203;54;20487;-74
2023/12/28 20:24:34;;;;;;;;;;;9.70;99.90;;;;;;2606529;47;19950;-75
2023/12/28 20:27:04;;;;;;;;;;;9.70;99.90;;;;;;2607551;54;19967;-76
2023/12/28 20:29:34;;;;;;;;;;;9.70;99.90;;;;;;2606871;47;19950;-76
2023/12/28 20:32:07;;;;;;;;;;;9.80;99.90;;;;;;2608703;51;19947;-76
2023/12/28 20:34:37;;;;;;;;;;;9.80;99.90;;;;;;2607011;54;20005;-77
2023/12/28 20:37:07;;;;;;;;;;;9.80;99.90;;;;;;2608122;47;19951;-76
2023/12/28 20:39:37;;;;;;;;;;;10.00;99.90;;;;;;2606752;39;20352;-75
2023/12/28 20:42:07;;;;;;;;;;;9.80;99.90;;;;;;2608092;47;19989;-76
2023/12/28 20:44:37;;;;;;;;;;;9.80;99.90;;;;;;2606770;54;19952;-76
2023/12/28 20:47:10;;;;;;;;;;;9.80;99.90;;;;;;2607781;54;19968;-75
2023/12/28 20:49:40;;;;;;;;;;;9.80;99.90;;;;;;2606742;54;19946;-76
2023/12/28 20:52:15;;;;;;;;;;;9.70;99.90;;;;;;2607135;47;19951;-76
2023/12/28 20:54:45;;;;;;;;;;;9.80;99.90;;;;;;2611527;47;19950;-76
2023/12/28 20:57:15;;;;;;;;;;;9.70;99.90;;;;;;2615462;47;19956;-73
2023/12/28 20:59:46;;;;;;;;;;;9.70;99.90;;;;;;2613178;46;20467;-75
2023/12/28 21:02:21;;;;;;;;;;;9.70;99.90;;;;;;2606231;47;19951;-74
2023/12/28 21:04:50;;;;;;;;;;;9.70;99.90;;;;;;2606795;47;19958;-74
2023/12/28 21:07:20;;;;;;;;;;;9.70;99.90;;;;;;2611036;47;19950;-73
2023/12/28 21:09:50;;;;;;;;;;;9.60;99.90;;;;;;2618291;54;20525;-75
2023/12/28 21:12:22;;;;;;;;;;;9.60;99.90;;;;;;2620133;54;20455;-74
2023/12/28 21:14:53;;;;;;;;;;;9.60;99.90;;;;;;2622947;54;19976;-75
2023/12/28 21:17:25;;;;;;;;;;;9.60;99.90;;;;;;2622919;47;19950;-74
2023/12/28 21:19:55;;;;;;;;;;;9.60;99.90;;;;;;2616921;47;20464;-75
2023/12/28 21:22:25;;;;;;;;;;;9.50;99.90;;;;;;2617407;47;19954;-74
2023/12/28 21:24:55;;;;;;;;;;;9.50;99.90;;;;;;2616984;54;19960;-75
2023/12/28 21:27:24;;;;;;;;;;;9.50;99.90;;;;;;2617738;54;19957;-73
2023/12/28 21:29:54;;;;;;;;;;;9.50;99.90;;;;;;2619286;54;19950;-73
2023/12/28 21:32:27;;;;;;;;;;;9.50;99.90;;;;;;2620358;54;19981;-74
2023/12/28 21:34:57;;;;;;;;;;;9.50;99.90;;;;;;2620738;46;20026;-74
2023/12/28 21:37:27;;;;;;;;;;;9.40;99.90;;;;;;2620015;31;20403;-74
2023/12/28 21:39:57;;;;;;;;;;;9.50;99.90;;;;;;2619578;47;19954;-74
2023/12/28 21:42:27;;;;;;;;;;;9.50;99.90;;;;;;2620053;54;19946;-75
2023/12/28 21:44:59;;;;;;;;;;;9.50;99.90;;;;;;2618608;47;19953;-76
2023/12/28 21:47:34;;;;;;;;;;;9.50;99.90;;;;;;2616336;47;19996;-74
2023/12/28 21:50:04;;;;;;;;;;;9.50;99.90;;;;;;2620122;54;19946;-76
2023/12/28 21:52:34;;;;;;;;;;;9.50;99.90;;;;;;2620119;47;19939;-75
2023/12/28 21:55:04;;;;;;;;;;;9.50;99.90;;;;;;2619779;54;19946;-75
2023/12/28 21:57:34;;;;;;;;;;;9.50;99.90;;;;;;2620035;47;19938;-74
2023/12/28 22:00:05;;;;;;;;;;;9.50;99.90;;;;;;2621005;54;19946;-74
2023/12/28 22:02:37;;;;;;;;;;;9.50;99.90;;;;;;2623415;47;20003;-75
2023/12/28 22:05:08;;;;;;;;;;;9.50;99.90;;;;;;2622738;47;19977;-73
2023/12/28 22:07:38;;;;;;;;;;;9.50;99.90;;;;;;2620805;47;19939;-74
2023/12/28 22:10:08;;;;;;;;;;;9.60;99.90;;;;;;2617869;47;19945;-73
2023/12/28 22:12:38;;;;;;;;;;;9.60;99.90;;;;;;2618514;54;19939;-74
2023/12/28 22:15:09;;;;;;;;;;;9.60;99.90;;;;;;2617725;39;20339;-73
2023/12/28 22:17:42;;;;;;;;;;;9.60;99.90;;;;;;2618231;47;19946;-74
2023/12/28 22:20:12;;;;;;;;;;;9.60;99.90;;;;;;2618670;54;19947;-73
2023/12/28 22:22:42;;;;;;;;;;;9.60;99.90;;;;;;2618068;47;19947;-74
2023/12/28 22:25:11;;;;;;;;;;;9.60;99.90;;;;;;2617207;54;19954;-74
2023/12/28 22:27:41;;;;;;;;;;;9.60;99.90;;;;;;2617682;47;19970;-74
2023/12/28 22:30:11;;;;;;;;;;;9.60;99.90;;;;;;2618246;39;20317;-74
2023/12/28 22:32:43;;;;;;;;;;;9.50;99.90;;;;;;2618102;47;19946;-75
2023/12/28 22:35:13;;;;;;;;;;;9.50;99.90;;;;;;2618628;46;20007;-75
2023/12/28 22:37:43;;;;;;;;;;;9.50;99.90;;;;;;2617267;47;20038;-75
2023/12/28 22:40:14;;;;;;;;;;;9.50;99.90;;;;;;2617849;47;19947;-75
2023/12/28 22:42:43;;;;;;;;;;;9.50;99.90;;;;;;2617038;47;20850;-74